Time;durP1;ratioP1;P1;durP2;ratioP2;P2;SDS_P1;SDS_P2;PMS_P1;PMS_P2;Temp;Humidity;BMP_temperature;BMP_pressure;BME280_temperature;BME280_humidity;BME280_pressure;Samples;Min_cycle;Max_cycle;Signal;HPM_P1;HPM_P2
2022/02/22 00:01:40;;;;;;;;;;;3.70;99.90;;;;;;5072383;28;20281;-74
2022/02/22 00:04:05;;;;;;;;;;;3.80;99.90;;;;;;5066727;28;20003;-74
2022/02/22 00:06:31;;;;;;;;;;;3.90;99.90;;;;;;5076524;28;19912;-74
2022/02/22 00:08:56;;;;;;;;;;;4.00;99.90;;;;;;5072244;28;19912;-74
2022/02/22 00:11:22;;;;;;;;;;;3.90;99.90;;;;;;5072189;28;19912;-74
2022/02/22 00:13:48;;;;;;;;;;;4.00;99.90;;;;;;5072089;28;20008;-74
2022/02/22 00:16:13;;;;;;;;;;;4.00;99.90;;;;;;5072386;28;19917;-74
2022/02/22 00:18:39;;;;;;;;;;;4.10;99.90;;;;;;5072207;28;19932;-74
2022/02/22 00:21:04;;;;;;;;;;;3.90;99.90;;;;;;5072239;28;19969;-73
2022/02/22 00:23:30;;;;;;;;;;;3.70;99.90;;;;;;5071732;28;19983;-74
2022/02/22 00:25:55;;;;;;;;;;;3.60;99.90;;;;;;5072189;28;20396;-74
2022/02/22 00:28:21;;;;;;;;;;;3.50;99.90;;;;;;5072072;28;19961;-74
2022/02/22 00:30:48;;;;;;;;;;;3.80;99.90;;;;;;5071911;28;20297;-73
2022/02/22 00:33:13;;;;;;;;;;;3.60;99.90;;;;;;5069641;28;20377;-74
2022/02/22 00:35:39;;;;;;;;;;;3.60;99.90;;;;;;5071685;28;19908;-72
2022/02/22 00:38:04;;;;;;;;;;;3.40;99.90;;;;;;5071735;28;19909;-74
2022/02/22 00:40:30;;;;;;;;;;;3.30;99.90;;;;;;5071839;28;19961;-74
2022/02/22 00:42:55;;;;;;;;;;;3.40;99.90;;;;;;5070432;28;20034;-74
2022/02/22 00:45:21;;;;;;;;;;;3.40;99.90;;;;;;5071434;28;19915;-72
2022/02/22 00:47:46;;;;;;;;;;;3.50;99.90;;;;;;5071600;28;20507;-74
2022/02/22 00:50:12;;;;;;;;;;;3.60;99.90;;;;;;5070341;28;20007;-74
2022/02/22 00:52:37;;;;;;;;;;;3.50;99.90;;;;;;5071268;28;20023;-74
2022/02/22 00:55:03;;;;;;;;;;;3.50;99.90;;;;;;5071317;28;19913;-74
2022/02/22 00:57:29;;;;;;;;;;;3.40;99.90;;;;;;5071438;28;19931;-74
2022/02/22 00:59:54;;;;;;;;;;;3.60;99.90;;;;;;5071428;28;19908;-74
2022/02/22 01:02:20;;;;;;;;;;;3.60;99.90;;;;;;5071451;28;20012;-74
2022/02/22 01:04:45;;;;;;;;;;;3.40;99.90;;;;;;5070938;28;19912;-74
2022/02/22 01:07:16;;;;;;;;;;;3.30;99.90;;;;;;5071160;28;20312;-74
2022/02/22 01:09:42;;;;;;;;;;;3.40;99.90;;;;;;5071116;28;19909;-74
2022/02/22 01:12:09;;;;;;;;;;;3.50;99.90;;;;;;5069395;28;19978;-73
2022/02/22 01:14:34;;;;;;;;;;;3.40;99.90;;;;;;5070706;28;20353;-74
2022/02/22 01:17:00;;;;;;;;;;;3.50;99.90;;;;;;5070966;28;19927;-72
2022/02/22 01:19:25;;;;;;;;;;;3.40;99.90;;;;;;5070851;28;20428;-74
2022/02/22 01:21:51;;;;;;;;;;;3.20;99.90;;;;;;5071269;28;19920;-74
2022/02/22 01:24:16;;;;;;;;;;;3.20;99.90;;;;;;5071020;28;19920;-74
2022/02/22 01:26:41;;;;;;;;;;;3.20;99.90;;;;;;5069805;28;19908;-74
2022/02/22 01:29:07;;;;;;;;;;;3.20;99.90;;;;;;5071060;28;19931;-74
2022/02/22 01:31:32;;;;;;;;;;;3.20;99.90;;;;;;5071034;28;20193;-73
2022/02/22 01:33:58;;;;;;;;;;;3.10;99.90;;;;;;5070664;28;21464;-74
2022/02/22 01:36:27;;;;;;;;;;;3.00;99.90;;;;;;5070870;28;20373;-74
2022/02/22 01:38:53;;;;;;;;;;;2.80;99.90;;;;;;5069775;28;19915;-72
2022/02/22 01:41:19;;;;;;;;;;;2.90;99.90;;;;;;5071044;28;19909;-74
2022/02/22 01:43:45;;;;;;;;;;;2.80;99.90;;;;;;5070687;28;19912;-73
2022/02/22 01:46:10;;;;;;;;;;;2.90;99.90;;;;;;5071012;28;19962;-73
2022/02/22 01:48:36;;;;;;;;;;;2.80;99.90;;;;;;5070990;28;19908;-74
2022/02/22 01:51:02;;;;;;;;;;;2.80;99.90;;;;;;5069592;28;19909;-74
2022/02/22 01:53:27;;;;;;;;;;;2.90;99.90;;;;;;5070618;28;19913;-74
2022/02/22 01:55:53;;;;;;;;;;;3.00;99.90;;;;;;5070691;28;19919;-72
2022/02/22 01:58:18;;;;;;;;;;;3.10;99.90;;;;;;5071096;28;20007;-74
2022/02/22 02:00:46;;;;;;;;;;;3.10;99.90;;;;;;5069142;28;19915;-74
2022/02/22 02:03:15;;;;;;;;;;;2.80;99.90;;;;;;5070212;28;20365;-74
2022/02/22 02:05:41;;;;;;;;;;;2.50;99.90;;;;;;5070617;28;20350;-74
2022/02/22 02:08:06;;;;;;;;;;;2.20;99.90;;;;;;5070735;28;20023;-74
2022/02/22 02:10:32;;;;;;;;;;;2.10;99.90;;;;;;5070833;28;19916;-74
2022/02/22 02:12:57;;;;;;;;;;;2.10;99.90;;;;;;5070356;28;19951;-74
2022/02/22 02:15:23;;;;;;;;;;;2.10;99.90;;;;;;5070361;28;19913;-74
2022/02/22 02:17:48;;;;;;;;;;;2.00;99.90;;;;;;5070630;28;19912;-74
2022/02/22 02:20:14;;;;;;;;;;;1.90;99.90;;;;;;5069289;28;20007;-75
2022/02/22 02:22:40;;;;;;;;;;;2.00;99.90;;;;;;5069208;28;19978;-73
2022/02/22 02:25:06;;;;;;;;;;;2.20;99.90;;;;;;5070385;28;20016;-74
2022/02/22 02:27:32;;;;;;;;;;;2.00;99.90;;;;;;5070366;28;20437;-74
2022/02/22 02:29:59;;;;;;;;;;;2.10;99.90;;;;;;5070588;28;20281;-72
2022/02/22 02:32:25;;;;;;;;;;;2.10;99.90;;;;;;5073027;28;19947;-74
2022/02/22 02:34:51;;;;;;;;;;;2.00;99.90;;;;;;5074685;28;20344;-74
2022/02/22 02:37:16;;;;;;;;;;;2.10;99.90;;;;;;5074030;28;19948;-74
2022/02/22 02:39:42;;;;;;;;;;;2.10;99.90;;;;;;5074502;28;19943;-73
2022/02/22 02:42:07;;;;;;;;;;;1.90;99.90;;;;;;5072435;28;19908;-74
2022/02/22 02:44:33;;;;;;;;;;;2.10;99.90;;;;;;5074018;28;19919;-74
2022/02/22 02:46:58;;;;;;;;;;;2.20;99.90;;;;;;5073917;28;20033;-74
2022/02/22 02:49:24;;;;;;;;;;;2.30;99.90;;;;;;5073922;28;20480;-74
2022/02/22 02:51:49;;;;;;;;;;;2.30;99.90;;;;;;5073696;28;20431;-74
2022/02/22 02:54:15;;;;;;;;;;;2.40;99.90;;;;;;5073439;28;19912;-74
2022/02/22 02:56:41;;;;;;;;;;;2.30;99.90;;;;;;5073524;28;19963;-73
2022/02/22 02:59:07;;;;;;;;;;;2.30;99.90;;;;;;5073652;28;19936;-72
2022/02/22 03:01:34;;;;;;;;;;;2.30;99.90;;;;;;5079373;28;19912;-73
2022/02/22 03:03:59;;;;;;;;;;;2.30;99.90;;;;;;5076275;28;19933;-74
2022/02/22 03:06:25;;;;;;;;;;;2.30;99.90;;;;;;5073714;28;20365;-74
2022/02/22 03:08:51;;;;;;;;;;;2.30;99.90;;;;;;5073504;28;19912;-73
2022/02/22 03:11:16;;;;;;;;;;;2.30;99.90;;;;;;5073176;28;19908;-72
2022/02/22 03:13:42;;;;;;;;;;;2.20;99.90;;;;;;5072866;28;19913;-74
2022/02/22 03:16:08;;;;;;;;;;;2.10;99.90;;;;;;5073421;28;19917;-74
2022/02/22 03:18:34;;;;;;;;;;;2.40;99.90;;;;;;5059704;28;19916;-74
2022/02/22 03:20:59;;;;;;;;;;;2.40;99.90;;;;;;5072744;28;20293;-72
2022/02/22 03:23:25;;;;;;;;;;;2.30;99.90;;;;;;5073009;28;19909;-73
2022/02/22 03:25:51;;;;;;;;;;;2.40;99.90;;;;;;5071839;28;19916;-74
2022/02/22 03:28:16;;;;;;;;;;;2.50;99.90;;;;;;5072231;28;19909;-74
2022/02/22 03:30:42;;;;;;;;;;;2.40;99.90;;;;;;5072400;28;20022;-74
2022/02/22 03:33:10;;;;;;;;;;;2.20;99.90;;;;;;5070427;28;19912;-73
2022/02/22 03:35:36;;;;;;;;;;;2.10;99.90;;;;;;5074296;28;19915;-74
2022/02/22 03:38:02;;;;;;;;;;;2.00;99.90;;;;;;5072793;28;19909;-74
2022/02/22 03:40:28;;;;;;;;;;;1.90;99.90;;;;;;5072710;28;19908;-74
2022/02/22 03:42:53;;;;;;;;;;;2.10;99.90;;;;;;5072339;28;19908;-74
2022/02/22 03:45:19;;;;;;;;;;;2.20;99.90;;;;;;5073002;28;19909;-74
2022/02/22 03:47:44;;;;;;;;;;;2.10;99.90;;;;;;5072695;28;19948;-74
2022/02/22 03:50:10;;;;;;;;;;;2.20;99.90;;;;;;5072852;28;19947;-74
2022/02/22 03:52:36;;;;;;;;;;;2.20;99.90;;;;;;5072464;28;19909;-74
2022/02/22 03:55:02;;;;;;;;;;;2.20;99.90;;;;;;5072325;28;20207;-74
2022/02/22 03:57:28;;;;;;;;;;;2.30;99.90;;;;;;5072539;28;19909;-73
2022/02/22 03:59:53;;;;;;;;;;;2.20;99.90;;;;;;5072576;28;20277;-74
2022/02/22 04:02:19;;;;;;;;;;;2.30;99.90;;;;;;5072300;28;19913;-74
2022/02/22 04:04:44;;;;;;;;;;;2.50;99.90;;;;;;5074108;28;19915;-74
2022/02/22 04:07:10;;;;;;;;;;;2.50;99.90;;;;;;5076359;28;19961;-72
2022/02/22 04:09:36;;;;;;;;;;;2.30;99.90;;;;;;5072290;28;19908;-74
2022/02/22 04:12:01;;;;;;;;;;;2.30;99.90;;;;;;5072135;28;19908;-74
2022/02/22 04:14:27;;;;;;;;;;;2.30;99.90;;;;;;5072357;28;19912;-74
2022/02/22 04:16:52;;;;;;;;;;;2.20;99.90;;;;;;5071966;28;20077;-73
2022/02/22 04:19:18;;;;;;;;;;;2.30;99.90;;;;;;5070846;28;19915;-74
2022/02/22 04:21:43;;;;;;;;;;;2.30;99.90;;;;;;5071965;28;19915;-74
2022/02/22 04:24:09;;;;;;;;;;;2.30;99.90;;;;;;5071627;28;19912;-74
2022/02/22 04:26:34;;;;;;;;;;;2.30;99.90;;;;;;5072047;28;19962;-73
2022/02/22 04:29:00;;;;;;;;;;;2.10;99.90;;;;;;5071925;28;19990;-73
2022/02/22 04:31:33;;;;;;;;;;;2.10;99.90;;;;;;5071803;28;19966;-74
2022/02/22 04:33:59;;;;;;;;;;;2.10;99.90;;;;;;5065689;28;20997;-73
2022/02/22 04:36:24;;;;;;;;;;;2.00;99.90;;;;;;5071624;28;19931;-73
2022/02/22 04:38:50;;;;;;;;;;;2.40;99.90;;;;;;5071590;28;19919;-73
2022/02/22 04:41:15;;;;;;;;;;;2.30;99.90;;;;;;5070578;28;19974;-73
2022/02/22 04:43:41;;;;;;;;;;;2.30;99.90;;;;;;5071730;28;19908;-73
2022/02/22 04:46:06;;;;;;;;;;;2.30;99.90;;;;;;5071623;28;19909;-74
2022/02/22 04:48:32;;;;;;;;;;;2.40;99.90;;;;;;5071587;28;19908;-75
2022/02/22 04:50:57;;;;;;;;;;;2.30;99.90;;;;;;5071518;28;19909;-73
2022/02/22 04:53:23;;;;;;;;;;;2.30;99.90;;;;;;5068874;28;19916;-74
2022/02/22 04:55:48;;;;;;;;;;;2.10;99.90;;;;;;5071573;28;20195;-73
2022/02/22 04:58:14;;;;;;;;;;;2.00;99.90;;;;;;5071370;28;19908;-74
2022/02/22 05:00:39;;;;;;;;;;;2.00;99.90;;;;;;5071421;28;19913;-73
2022/02/22 05:03:05;;;;;;;;;;;2.10;99.90;;;;;;5070815;28;20007;-73
2022/02/22 05:05:30;;;;;;;;;;;2.10;99.90;;;;;;5071052;28;19912;-74
2022/02/22 05:07:56;;;;;;;;;;;2.00;99.90;;;;;;5070932;28;19931;-74
2022/02/22 05:10:22;;;;;;;;;;;1.90;99.90;;;;;;5070341;28;19915;-74
2022/02/22 05:12:47;;;;;;;;;;;1.70;99.90;;;;;;5071028;28;19916;-72
2022/02/22 05:15:13;;;;;;;;;;;1.90;99.90;;;;;;5070632;28;20320;-74
2022/02/22 05:17:38;;;;;;;;;;;1.90;99.90;;;;;;5069149;28;19916;-74
2022/02/22 05:20:08;;;;;;;;;;;1.80;99.90;;;;;;5070998;28;20266;-73
2022/02/22 05:22:37;;;;;;;;;;;1.90;99.90;;;;;;5070923;28;20265;-74
2022/02/22 05:25:03;;;;;;;;;;;1.60;99.90;;;;;;5071209;28;19913;-74
2022/02/22 05:27:28;;;;;;;;;;;1.50;99.90;;;;;;5071122;28;20425;-74
2022/02/22 05:29:53;;;;;;;;;;;1.40;99.90;;;;;;5071068;28;19919;-74
2022/02/22 05:32:19;;;;;;;;;;;1.40;99.90;;;;;;5070917;28;20313;-74
2022/02/22 05:34:44;;;;;;;;;;;1.30;99.90;;;;;;5065148;28;19919;-74
2022/02/22 05:37:10;;;;;;;;;;;1.30;99.90;;;;;;5069377;28;19934;-72
2022/02/22 05:39:35;;;;;;;;;;;1.30;99.90;;;;;;5071148;28;19929;-74
2022/02/22 05:42:01;;;;;;;;;;;1.40;99.90;;;;;;5070772;28;19909;-74
2022/02/22 05:44:26;;;;;;;;;;;1.40;99.90;;;;;;5070707;28;19954;-73
2022/02/22 05:46:52;;;;;;;;;;;1.30;99.90;;;;;;5069440;28;19909;-74
2022/02/22 05:49:17;;;;;;;;;;;1.30;99.90;;;;;;5070875;28;19912;-74
2022/02/22 05:51:43;;;;;;;;;;;1.20;99.90;;;;;;5069289;28;20010;-73
2022/02/22 05:54:09;;;;;;;;;;;0.90;99.90;;;;;;5070486;28;19920;-72
2022/02/22 05:56:34;;;;;;;;;;;0.90;99.90;;;;;;5070658;28;19908;-73
2022/02/22 05:59:02;;;;;;;;;;;1.10;99.90;;;;;;5064123;28;20004;-73
2022/02/22 06:01:28;;;;;;;;;;;1.20;99.90;;;;;;5064038;28;19908;-73
2022/02/22 06:03:53;;;;;;;;;;;1.60;99.90;;;;;;5070329;28;19912;-74
2022/02/22 06:06:19;;;;;;;;;;;1.60;99.90;;;;;;5074325;28;19963;-71
2022/02/22 06:08:44;;;;;;;;;;;1.60;99.90;;;;;;5078664;28;19909;-72
2022/02/22 06:11:09;;;;;;;;;;;1.70;99.90;;;;;;5077195;28;19916;-73
2022/02/22 06:13:35;;;;;;;;;;;1.70;99.90;;;;;;5074233;28;20403;-72
2022/02/22 06:16:00;;;;;;;;;;;1.60;99.90;;;;;;5074432;28;19916;-74
2022/02/22 06:18:26;;;;;;;;;;;1.30;99.90;;;;;;5074489;28;20411;-73
2022/02/22 06:20:52;;;;;;;;;;;1.20;99.90;;;;;;5074362;28;19909;-73
2022/02/22 06:23:17;;;;;;;;;;;1.10;99.90;;;;;;5072469;28;19912;-73
2022/02/22 06:25:43;;;;;;;;;;;1.30;99.90;;;;;;5074192;28;20362;-74
2022/02/22 06:28:09;;;;;;;;;;;1.20;99.90;;;;;;5074118;28;20180;-73
2022/02/22 06:30:35;;;;;;;;;;;1.30;99.90;;;;;;5074125;28;19955;-73
2022/02/22 06:33:00;;;;;;;;;;;1.20;99.90;;;;;;5073863;28;19912;-74
2022/02/22 06:35:26;;;;;;;;;;;1.00;99.90;;;;;;5070205;28;20426;-73
2022/02/22 06:37:51;;;;;;;;;;;1.00;99.90;;;;;;5075650;28;20334;-73
2022/02/22 06:40:17;;;;;;;;;;;1.00;99.90;;;;;;5073966;28;20357;-73
2022/02/22 06:42:42;;;;;;;;;;;0.90;99.90;;;;;;5073810;28;20297;-74
2022/02/22 06:45:09;;;;;;;;;;;0.90;99.90;;;;;;5073485;28;19916;-74
2022/02/22 06:47:41;;;;;;;;;;;0.80;99.90;;;;;;5072547;28;19908;-73
2022/02/22 06:50:08;;;;;;;;;;;0.90;99.90;;;;;;5073681;28;19912;-73
2022/02/22 06:52:33;;;;;;;;;;;0.80;99.90;;;;;;5072250;28;19912;-73
2022/02/22 06:54:59;;;;;;;;;;;0.90;99.90;;;;;;5073669;28;20415;-73
2022/02/22 06:57:24;;;;;;;;;;;0.90;99.90;;;;;;5073881;28;20341;-73
2022/02/22 06:59:50;;;;;;;;;;;1.10;99.90;;;;;;5073904;28;19954;-73
2022/02/22 07:02:15;;;;;;;;;;;1.40;99.90;;;;;;5073505;28;19916;-74
2022/02/22 07:04:40;;;;;;;;;;;1.40;99.90;;;;;;5067503;28;19912;-74
2022/02/22 07:07:07;;;;;;;;;;;1.50;99.90;;;;;;5073194;28;19995;-73
2022/02/22 07:09:34;;;;;;;;;;;1.80;99.90;;;;;;5067590;28;19963;-73
2022/02/22 07:11:59;;;;;;;;;;;1.90;99.90;;;;;;5072733;28;19920;-73
2022/02/22 07:14:25;;;;;;;;;;;1.90;99.90;;;;;;5071901;28;19967;-73
2022/02/22 07:16:50;;;;;;;;;;;1.90;99.90;;;;;;5073640;28;19922;-73
2022/02/22 07:19:16;;;;;;;;;;;2.10;99.90;;;;;;5072804;28;20660;-73
2022/02/22 07:21:41;;;;;;;;;;;2.20;99.90;;;;;;5065812;28;19948;-73
2022/02/22 07:24:06;;;;;;;;;;;2.50;99.90;;;;;;5072215;28;20323;-72
2022/02/22 07:26:32;;;;;;;;;;;2.40;99.90;;;;;;5072847;28;19909;-74
2022/02/22 07:28:57;;;;;;;;;;;2.70;99.90;;;;;;5076347;28;19909;-73
2022/02/22 07:31:23;;;;;;;;;;;2.80;99.90;;;;;;5072520;28;19981;-74
2022/02/22 07:33:49;;;;;;;;;;;2.80;99.90;;;;;;5066651;28;20373;-74
2022/02/22 07:36:14;;;;;;;;;;;2.90;99.90;;;;;;5067048;28;19950;-74
2022/02/22 07:38:40;;;;;;;;;;;3.00;99.90;;;;;;5069321;28;19914;-74
2022/02/22 07:41:05;;;;;;;;;;;3.10;99.90;;;;;;5069408;28;19916;-73
2022/02/22 07:43:30;;;;;;;;;;;3.10;99.90;;;;;;5066071;28;19909;-74
2022/02/22 07:45:56;;;;;;;;;;;3.20;99.90;;;;;;5070578;28;19991;-74
2022/02/22 07:48:22;;;;;;;;;;;3.30;99.90;;;;;;5069363;28;20006;-72
2022/02/22 07:50:47;;;;;;;;;;;3.20;99.90;;;;;;5068567;28;19908;-73
2022/02/22 07:53:13;;;;;;;;;;;3.30;99.90;;;;;;5070257;28;19916;-74
2022/02/22 07:55:39;;;;;;;;;;;3.20;99.90;;;;;;5070314;28;20355;-74
2022/02/22 07:58:04;;;;;;;;;;;3.30;99.90;;;;;;5065228;28;19916;-74
2022/02/22 08:00:30;;;;;;;;;;;3.50;99.90;;;;;;5071411;28;20000;-74
2022/02/22 08:02:55;;;;;;;;;;;3.50;99.90;;;;;;5072285;28;20403;-73
2022/02/22 08:05:22;;;;;;;;;;;3.70;99.90;;;;;;5070329;28;19909;-74
2022/02/22 08:07:47;;;;;;;;;;;3.80;99.90;;;;;;5071995;28;19908;-74
2022/02/22 08:10:13;;;;;;;;;;;3.90;99.90;;;;;;5081611;28;19913;-74
2022/02/22 08:12:39;;;;;;;;;;;4.10;99.90;;;;;;5072269;28;19944;-74
2022/02/22 08:15:05;;;;;;;;;;;4.20;99.90;;;;;;5071775;28;20327;-74
2022/02/22 08:17:30;;;;;;;;;;;4.50;99.90;;;;;;5071721;28;19924;-73
2022/02/22 08:19:56;;;;;;;;;;;4.70;99.90;;;;;;5072101;28;19934;-72
2022/02/22 08:22:21;;;;;;;;;;;4.60;99.90;;;;;;5072049;28;19999;-74
2022/02/22 08:24:47;;;;;;;;;;;4.60;99.90;;;;;;5071700;28;19962;-74
2022/02/22 08:27:14;;;;;;;;;;;4.70;99.90;;;;;;5071456;28;20381;-73
2022/02/22 08:29:40;;;;;;;;;;;5.10;99.90;;;;;;5065520;28;19909;-74
2022/02/22 08:32:05;;;;;;;;;;;5.50;99.90;;;;;;5064754;28;19915;-74
2022/02/22 08:34:31;;;;;;;;;;;5.60;99.90;;;;;;5069833;28;19919;-74
2022/02/22 08:36:56;;;;;;;;;;;5.40;99.90;;;;;;5075455;28;20350;-74
2022/02/22 08:39:24;;;;;;;;;;;5.30;99.90;;;;;;5071672;28;19908;-74
2022/02/22 08:41:50;;;;;;;;;;;5.30;99.90;;;;;;5071318;28;19908;-74
2022/02/22 08:44:16;;;;;;;;;;;5.30;99.90;;;;;;5065714;28;19920;-74
2022/02/22 08:46:41;;;;;;;;;;;5.30;99.90;;;;;;5067432;28;20003;-74
2022/02/22 08:49:07;;;;;;;;;;;5.20;99.90;;;;;;5071596;28;19909;-73
2022/02/22 08:51:33;;;;;;;;;;;5.20;99.90;;;;;;5064946;28;19923;-72
2022/02/22 08:53:58;;;;;;;;;;;5.30;99.90;;;;;;5064912;28;19913;-74
2022/02/22 08:56:24;;;;;;;;;;;5.30;99.90;;;;;;5070739;28;19912;-74
2022/02/22 08:58:49;;;;;;;;;;;5.30;99.90;;;;;;5064088;28;19916;-74
2022/02/22 09:01:15;;;;;;;;;;;5.30;99.90;;;;;;5063579;28;20007;-72
2022/02/22 09:03:40;;;;;;;;;;;5.30;99.90;;;;;;5077045;28;19912;-74
2022/02/22 09:06:06;;;;;;;;;;;5.40;99.90;;;;;;5069853;28;19908;-72
2022/02/22 09:08:32;;;;;;;;;;;5.50;99.90;;;;;;5073040;28;19908;-74
2022/02/22 09:10:57;;;;;;;;;;;5.50;99.90;;;;;;5069654;28;19908;-72
2022/02/22 09:13:23;;;;;;;;;;;5.50;99.90;;;;;;5070670;28;20464;-74
2022/02/22 09:15:49;;;;;;;;;;;5.60;99.90;;;;;;5070813;28;20396;-73
2022/02/22 09:18:15;;;;;;;;;;;5.70;99.90;;;;;;5071203;28;19909;-73
2022/02/22 09:20:40;;;;;;;;;;;5.60;99.90;;;;;;5069107;28;19995;-74
2022/02/22 09:23:06;;;;;;;;;;;5.60;99.90;;;;;;5066298;28;20007;-74
2022/02/22 09:25:35;;;;;;;;;;;5.80;99.90;;;;;;5070990;28;19916;-73
2022/02/22 09:28:01;;;;;;;;;;;6.00;99.90;;;;;;5071100;28;19908;-74
2022/02/22 09:30:28;;;;;;;;;;;6.00;99.90;;;;;;5070837;28;19908;-74
2022/02/22 09:32:54;;;;;;;;;;;6.20;99.90;;;;;;5070913;28;19916;-73
2022/02/22 09:35:20;;;;;;;;;;;6.40;99.90;;;;;;5068095;28;20008;-74
2022/02/22 09:37:45;;;;;;;;;;;6.70;99.90;;;;;;5073248;28;20555;-74
2022/02/22 09:40:12;;;;;;;;;;;6.70;99.90;;;;;;5071883;28;19944;-73
2022/02/22 09:42:37;;;;;;;;;;;6.50;99.90;;;;;;5077597;28;19916;-74
2022/02/22 09:45:06;;;;;;;;;;;6.30;99.90;;;;;;5075912;28;20069;-74
2022/02/22 09:47:32;;;;;;;;;;;6.40;99.90;;;;;;5077341;28;19982;-74
2022/02/22 09:49:58;;;;;;;;;;;6.50;99.90;;;;;;5077298;28;19919;-73
2022/02/22 09:52:24;;;;;;;;;;;6.40;99.90;;;;;;5077088;28;19908;-74
2022/02/22 09:54:50;;;;;;;;;;;6.60;99.90;;;;;;5076769;28;19919;-74
2022/02/22 09:57:16;;;;;;;;;;;6.60;99.90;;;;;;5077581;28;19908;-74
2022/02/22 09:59:42;;;;;;;;;;;6.60;99.90;;;;;;5062629;28;20445;-74
2022/02/22 10:02:08;;;;;;;;;;;6.80;99.90;;;;;;5072728;28;19908;-74
2022/02/22 10:04:42;;;;;;;;;;;6.80;99.90;;;;;;5075038;28;19944;-74
2022/02/22 10:07:08;;;;;;;;;;;6.80;99.90;;;;;;5074355;28;19958;-74
2022/02/22 10:09:34;;;;;;;;;;;7.00;99.90;;;;;;5079508;28;20330;-74
2022/02/22 10:11:59;;;;;;;;;;;7.50;99.90;;;;;;5076875;28;20269;-74
2022/02/22 10:14:25;;;;;;;;;;;7.70;99.90;;;;;;5077464;28;20426;-73
2022/02/22 10:16:51;;;;;;;;;;;7.80;99.90;;;;;;5077163;28;20369;-74
2022/02/22 10:19:17;;;;;;;;;;;8.10;99.90;;;;;;5075959;28;19951;-74
2022/02/22 10:21:43;;;;;;;;;;;8.10;99.90;;;;;;5077077;28;19961;-74
2022/02/22 10:24:10;;;;;;;;;;;7.90;99.90;;;;;;5076786;28;19963;-72
2022/02/22 10:26:35;;;;;;;;;;;8.40;99.90;;;;;;5075637;28;20299;-73
2022/02/22 10:29:15;;;;;;;;;;;9.10;98.10;;;;;;5076580;28;20305;-74
2022/02/22 10:31:41;;;;;;;;;;;11.30;95.60;;;;;;5071503;28;19908;-73
2022/02/22 10:34:07;;;;;;;;;;;11.50;93.20;;;;;;5077956;28;20019;-74
2022/02/22 10:36:38;;;;;;;;;;;10.90;93.80;;;;;;5075531;28;20610;-75
2022/02/22 10:39:04;;;;;;;;;;;11.70;92.70;;;;;;5071049;28;20372;-74
2022/02/22 10:41:33;;;;;;;;;;;11.00;92.90;;;;;;5076882;28;19999;-73
2022/02/22 10:43:59;;;;;;;;;;;10.80;93.20;;;;;;5076744;28;19908;-74
2022/02/22 10:46:26;;;;;;;;;;;9.70;94.40;;;;;;5077084;28;19909;-74
2022/02/22 10:48:58;;;;;;;;;;;9.00;96.30;;;;;;5075796;28;20357;-74
2022/02/22 10:51:31;;;;;;;;;;;8.30;96.70;;;;;;5074189;28;20247;-73
2022/02/22 10:53:57;;;;;;;;;;;8.10;96.90;;;;;;5073292;28;19916;-73
2022/02/22 10:56:22;;;;;;;;;;;7.70;97.90;;;;;;5072508;28;19999;-74
2022/02/22 10:58:48;;;;;;;;;;;7.30;98.00;;;;;;5073630;28;20335;-72
2022/02/22 11:01:14;;;;;;;;;;;7.30;98.70;;;;;;5071149;28;20381;-72
2022/02/22 11:03:41;;;;;;;;;;;7.30;99.60;;;;;;5072932;28;19909;-72
2022/02/22 11:06:08;;;;;;;;;;;7.10;99.30;;;;;;5073379;28;19930;-72
2022/02/22 11:08:34;;;;;;;;;;;7.10;99.90;;;;;;5064726;28;20380;-74
2022/02/22 11:11:08;;;;;;;;;;;7.10;99.90;;;;;;5071109;28;19917;-74
2022/02/22 11:13:34;;;;;;;;;;;7.30;99.90;;;;;;5068718;28;19916;-74
2022/02/22 11:16:17;;;;;;;;;;;7.40;99.90;;;;;;5073274;28;19924;-73
2022/02/22 11:18:44;;;;;;;;;;;7.30;99.00;;;;;;5073531;28;19908;-75
2022/02/22 11:21:10;;;;;;;;;;;7.30;99.90;;;;;;5073237;28;19909;-75
2022/02/22 11:23:36;;;;;;;;;;;7.20;99.90;;;;;;5072928;28;20300;-73
2022/02/22 11:26:06;;;;;;;;;;;7.20;99.90;;;;;;5073137;28;19909;-74
2022/02/22 11:28:36;;;;;;;;;;;7.20;99.90;;;;;;5072973;28;19908;-73
2022/02/22 11:31:05;;;;;;;;;;;7.20;99.90;;;;;;5073206;28;20273;-74
2022/02/22 11:33:37;;;;;;;;;;;7.10;99.90;;;;;;5072513;28;19912;-72
2022/02/22 11:36:05;;;;;;;;;;;7.20;99.90;;;;;;5070705;28;19936;-74
2022/02/22 11:38:41;;;;;;;;;;;7.50;99.90;;;;;;5076672;28;20424;-75
2022/02/22 11:41:13;;;;;;;;;;;7.70;99.90;;;;;;5071207;28;19909;-72
2022/02/22 11:43:49;;;;;;;;;;;7.90;99.90;;;;;;5068702;28;19908;-74
2022/02/22 11:46:14;;;;;;;;;;;7.90;99.90;;;;;;5067692;28;20254;-75
2022/02/22 11:48:41;;;;;;;;;;;7.50;99.90;;;;;;5072769;28;20003;-74
2022/02/22 11:51:15;;;;;;;;;;;7.00;99.90;;;;;;5072780;28;19908;-74
2022/02/22 11:53:41;;;;;;;;;;;6.60;99.90;;;;;;5072690;28;19955;-74
2022/02/22 11:56:06;;;;;;;;;;;6.50;99.90;;;;;;5072537;28;19908;-74
2022/02/22 11:58:36;;;;;;;;;;;6.90;99.90;;;;;;5072328;28;19920;-74
2022/02/22 12:01:05;;;;;;;;;;;7.20;99.90;;;;;;5072786;28;19908;-74
2022/02/22 12:03:44;;;;;;;;;;;7.30;99.90;;;;;;5072334;28;19939;-73
2022/02/22 12:06:10;;;;;;;;;;;7.10;99.90;;;;;;5068827;28;19908;-73
2022/02/22 12:08:40;;;;;;;;;;;7.10;99.90;;;;;;5067730;28;19931;-74
2022/02/22 12:11:08;;;;;;;;;;;7.30;99.90;;;;;;5069614;28;19916;-74
2022/02/22 12:13:40;;;;;;;;;;;7.40;99.90;;;;;;5072040;28;19974;-74
2022/02/22 12:16:26;;;;;;;;;;;7.70;99.90;;;;;;5070854;28;20388;-74
2022/02/22 12:18:53;;;;;;;;;;;8.00;99.90;;;;;;5065817;28;19908;-73
2022/02/22 12:21:20;;;;;;;;;;;7.80;99.90;;;;;;5065090;28;19959;-74
2022/02/22 12:23:46;;;;;;;;;;;7.60;99.90;;;;;;5065324;28;19909;-74
2022/02/22 12:26:13;;;;;;;;;;;7.60;99.90;;;;;;5072044;28;19940;-74
2022/02/22 12:28:43;;;;;;;;;;;7.50;99.90;;;;;;5071807;28;19940;-74
2022/02/22 12:31:09;;;;;;;;;;;7.70;99.90;;;;;;5066425;28;19908;-75
2022/02/22 12:33:34;;;;;;;;;;;7.90;99.90;;;;;;5064760;28;19916;-75
2022/02/22 12:36:13;;;;;;;;;;;7.90;99.90;;;;;;5069064;28;19919;-74
2022/02/22 12:38:39;;;;;;;;;;;8.00;99.90;;;;;;5068350;28;19912;-75
2022/02/22 12:41:10;;;;;;;;;;;8.40;99.90;;;;;;5071771;28;20411;-74
2022/02/22 12:43:48;;;;;;;;;;;8.90;99.90;;;;;;5071523;28;19908;-75
2022/02/22 12:46:14;;;;;;;;;;;8.50;99.90;;;;;;5071699;28;20420;-75
2022/02/22 12:48:41;;;;;;;;;;;8.70;99.90;;;;;;5072401;28;20268;-74
2022/02/22 12:51:06;;;;;;;;;;;8.60;99.60;;;;;;5071477;28;20437;-75
2022/02/22 12:53:32;;;;;;;;;;;8.40;99.70;;;;;;5071340;28;19916;-75
2022/02/22 12:55:58;;;;;;;;;;;8.40;99.30;;;;;;5071098;28;19948;-75
2022/02/22 12:58:33;;;;;;;;;;;8.50;99.50;;;;;;5063934;28;19917;-74
2022/02/22 13:01:15;;;;;;;;;;;8.80;99.20;;;;;;5065336;28;19916;-74
2022/02/22 13:03:41;;;;;;;;;;;9.00;98.90;;;;;;5070997;28;19916;-75
2022/02/22 13:06:10;;;;;;;;;;;9.10;98.30;;;;;;5067893;28;19915;-74
2022/02/22 13:08:36;;;;;;;;;;;9.30;99.30;;;;;;5066097;28;20353;-75
2022/02/22 13:11:01;;;;;;;;;;;9.00;97.80;;;;;;5071369;28;19909;-74
2022/02/22 13:13:28;;;;;;;;;;;9.00;98.40;;;;;;5070729;28;19917;-75
2022/02/22 13:15:54;;;;;;;;;;;9.00;97.50;;;;;;5071250;28;20030;-75
2022/02/22 13:18:22;;;;;;;;;;;8.80;97.70;;;;;;5071571;28;20412;-75
2022/02/22 13:20:49;;;;;;;;;;;8.90;97.40;;;;;;5071440;28;19951;-74
2022/02/22 13:23:14;;;;;;;;;;;9.00;97.20;;;;;;5069773;28;19931;-75
2022/02/22 13:25:41;;;;;;;;;;;9.00;97.40;;;;;;5070081;28;20361;-74
2022/02/22 13:28:06;;;;;;;;;;;8.70;97.40;;;;;;5073453;28;19908;-74
2022/02/22 13:30:33;;;;;;;;;;;8.90;97.40;;;;;;5075745;28;19916;-75
2022/02/22 13:33:03;;;;;;;;;;;8.90;97.60;;;;;;5070902;28;19914;-75
2022/02/22 13:35:29;;;;;;;;;;;8.70;97.10;;;;;;5068988;28;20026;-75
2022/02/22 13:37:57;;;;;;;;;;;8.40;97.20;;;;;;5070509;28;19908;-75
2022/02/22 13:40:27;;;;;;;;;;;8.30;97.60;;;;;;5070583;28;19993;-75
2022/02/22 13:43:05;;;;;;;;;;;8.20;97.20;;;;;;5071031;28;20277;-74
2022/02/22 13:45:32;;;;;;;;;;;8.30;97.70;;;;;;5069908;28;19908;-75
2022/02/22 13:48:01;;;;;;;;;;;8.40;97.10;;;;;;5070826;28;19916;-75
2022/02/22 13:50:27;;;;;;;;;;;8.20;97.10;;;;;;5070754;28;19909;-75
2022/02/22 13:52:56;;;;;;;;;;;8.20;97.10;;;;;;5070338;28;20392;-75
2022/02/22 13:55:22;;;;;;;;;;;8.30;97.40;;;;;;5070640;28;20443;-75
2022/02/22 13:57:49;;;;;;;;;;;8.20;97.70;;;;;;5070832;28;19916;-75
2022/02/22 14:00:15;;;;;;;;;;;8.10;96.90;;;;;;5070774;28;20353;-75
2022/02/22 14:02:42;;;;;;;;;;;8.00;97.10;;;;;;5070872;28;19909;-74
2022/02/22 14:05:08;;;;;;;;;;;8.00;97.00;;;;;;5074476;28;20350;-75
2022/02/22 14:07:33;;;;;;;;;;;8.00;97.00;;;;;;5071250;28;19955;-75
2022/02/22 14:09:59;;;;;;;;;;;8.20;97.00;;;;;;5070431;28;19916;-74
2022/02/22 14:12:24;;;;;;;;;;;8.10;97.70;;;;;;5070590;28;19922;-73
2022/02/22 14:14:50;;;;;;;;;;;8.00;98.40;;;;;;5070638;28;20399;-75
2022/02/22 14:17:16;;;;;;;;;;;8.00;98.50;;;;;;5070521;28;19916;-75
2022/02/22 14:19:41;;;;;;;;;;;8.00;98.70;;;;;;5070730;28;19908;-75
2022/02/22 14:22:07;;;;;;;;;;;7.90;97.90;;;;;;5070417;28;20285;-74
2022/02/22 14:24:32;;;;;;;;;;;7.90;97.30;;;;;;5070635;28;19909;-75